< < Back
Terminal Aerodrome Forecast


Current Version              Previous Versions:   1  2  3  4  5  6  7  8  9  

Terminal Aerodrome Forecast

220
FTUS44 KBMX 080535
TAFANB
TAF
KANB 080535Z 0806/0906 23004KT P6SM SCT150
     FM081300 25006KT P6SM BKN050 BKN130
     FM081600 28013G23KT P6SM BKN050
     FM090100 29009KT P6SM BKN035=

Latest METAR

754
SAUS70 KWBC 080600 RRD
MTRANB
METAR KANB 080553Z AUTO 00000KT 10SM CLR 01/M03 A3000 RMK AO2 SLP165
T00061028 10072 20000 401391039 58003


USA.gov is the U.S. government's official web portal to all federal, state and local government web resources and services.